Lumsden, Canada
Current Conditions -  °F | °C
As of 11:00 AM on Saturday 25 Oct 2014 (Local Time) from CYQR Reporting Station
Broken Clouds Broken Clouds  
Wind Chill: 45°   Ceiling: 27000
Heat Index: 45°   Visibility: 15mi
Dew Point: 34°   Wind: 0mph
Humidity: 66%   Direction: NA
Pressure: 30.08"   Gusts: NA
Location:  50.64°N, 104.87°W
Report Text: CYQR 251700Z 00000KT 15SM BKN270 07/01 A3008 RMK CI5 SLP208
Loading
Personal Weather Stations






























Interactive Weather Map
Tropical Storm Tracking
New forecast layout! Learn more

10-Day Weather Forecast

Advertisements
Track Severe Weather on mobile